Time;durP1;ratioP1;P1;durP2;ratioP2;P2;SDS_P1;SDS_P2;PMS_P1;PMS_P2;Temp;Humidity;BMP_temperature;BMP_pressure;BME280_temperature;BME280_humidity;BME280_pressure;Samples;Min_cycle;Max_cycle;Signal;HPM_P1;HPM_P2
2021/12/20 00:02:23;;;;;;;;;;;;;;;22.12;22.41;96916.25;5073630;28;1092;-76
2021/12/20 00:04:51;;;;;;;;;;;;;;;22.41;22.19;96909.28;5075792;28;926;-76
2021/12/20 00:07:17;;;;;;;;;;;;;;;22.24;22.23;96926.63;5075552;28;1083;-76
2021/12/20 00:09:43;;;;;;;;;;;;;;;22.22;22.34;96914.97;5075558;28;934;-76
2021/12/20 00:12:08;;;;;;;;;;;;;;;22.03;22.62;96908.53;5075043;28;1902;-76
2021/12/20 00:14:34;;;;;;;;;;;;;;;22.30;22.28;96913.41;5075106;28;936;-76
2021/12/20 00:16:59;;;;;;;;;;;;;;;22.12;22.54;96909.81;5074880;28;1166;-76
2021/12/20 00:19:26;;;;;;;;;;;;;;;22.07;22.59;96900.69;5075274;28;956;-76
2021/12/20 00:21:51;;;;;;;;;;;;;;;21.89;22.58;96908.41;5052765;28;1037;-76
2021/12/20 00:24:18;;;;;;;;;;;;;;;21.76;22.45;96908.53;5053046;28;972;-76
2021/12/20 00:26:44;;;;;;;;;;;;;;;21.64;22.77;96898.97;5052722;28;977;-76
2021/12/20 00:29:09;;;;;;;;;;;;;;;21.75;22.20;96904.94;5052902;28;1037;-76
2021/12/20 00:31:34;;;;;;;;;;;;;;;21.48;22.59;96907.78;5012961;28;1965;-76
2021/12/20 00:34:00;;;;;;;;;;;;;;;21.97;21.98;96921.00;4996498;28;952;-76
2021/12/20 00:36:27;;;;;;;;;;;;;;;21.60;22.49;96926.63;5013230;28;1054;-76
2021/12/20 00:41:36;;;;;;;;;;;;;;;22.12;21.66;96913.41;5015771;28;941;-76
2021/12/20 00:44:02;;;;;;;;;;;;;;;21.54;22.71;96917.19;5016286;28;959;-76
2021/12/20 00:46:27;;;;;;;;;;;;;;;21.81;22.67;96925.72;5016699;28;1068;-76
2021/12/20 00:48:53;;;;;;;;;;;;;;;22.16;22.19;96916.88;5016221;28;1032;-76
2021/12/20 00:51:18;;;;;;;;;;;;;;;22.51;22.48;96920.09;5016676;28;1899;-76
2021/12/20 00:53:44;;;;;;;;;;;;;;;22.72;21.97;96912.63;5050483;28;1305;-76
2021/12/20 00:56:09;;;;;;;;;;;;;;;22.03;22.77;96924.75;5056150;28;927;-76
2021/12/20 00:58:35;;;;;;;;;;;;;;;21.47;23.97;96912.66;5056040;28;1011;-76
2021/12/20 01:01:01;;;;;;;;;;;;;;;21.69;23.51;96911.72;5055777;28;1011;-76
2021/12/20 01:03:27;;;;;;;;;;;;;;;22.05;23.27;96905.22;5075415;28;1150;-76
2021/12/20 01:05:52;;;;;;;;;;;;;;;22.05;22.78;96905.22;5078101;28;1000;-76
2021/12/20 01:08:20;;;;;;;;;;;;;;;21.98;23.30;96911.22;5078576;28;903;-76
2021/12/20 01:10:49;;;;;;;;;;;;;;;21.91;23.23;96917.19;5078088;28;945;-76
2021/12/20 01:13:16;;;;;;;;;;;;;;;21.50;23.63;96910.91;5078311;28;1898;-76
2021/12/20 01:15:46;;;;;;;;;;;;;;;21.47;23.78;96909.03;5078020;28;997;-76
2021/12/20 01:18:12;;;;;;;;;;;;;;;21.93;23.30;96914.69;5075485;28;999;-76
2021/12/20 01:20:37;;;;;;;;;;;;;;;21.90;23.32;96915.63;5075417;28;946;-76
2021/12/20 01:23:03;;;;;;;;;;;;;;;21.75;23.56;96910.59;5075539;28;1046;-76
2021/12/20 01:25:29;;;;;;;;;;;;;;;22.10;23.10;96907.41;5075250;28;986;-76
2021/12/20 01:27:55;;;;;;;;;;;;;;;21.61;23.67;96908.41;5058516;28;1065;-76
2021/12/20 01:30:21;;;;;;;;;;;;;;;21.95;23.19;96906.50;5075659;28;1015;-76
2021/12/20 01:32:46;;;;;;;;;;;;;;;21.74;23.51;96909.03;5075268;28;1979;-76
2021/12/20 01:35:12;;;;;;;;;;;;;;;21.32;24.09;96891.88;5058328;28;978;-76
2021/12/20 01:37:37;;;;;;;;;;;;;;;22.12;23.16;96893.59;5075032;28;998;-76
2021/12/20 01:40:04;;;;;;;;;;;;;;;22.06;23.01;96889.78;5074942;28;977;-76
2021/12/20 01:42:32;;;;;;;;;;;;;;;21.86;23.26;96887.47;5074764;28;1037;-76
2021/12/20 01:44:58;;;;;;;;;;;;;;;22.03;23.25;96885.09;5074945;28;925;-76
2021/12/20 01:47:26;;;;;;;;;;;;;;;22.20;22.90;96877.84;5075409;28;1084;-76
2021/12/20 01:52:46;;;;;;;;;;;;;;;21.98;23.23;96866.69;5008506;28;1914;-76
2021/12/20 01:55:12;;;;;;;;;;;;;;;21.87;23.33;96859.97;5035133;28;959;-76
2021/12/20 01:57:38;;;;;;;;;;;;;;;22.07;22.89;96857.38;5035203;28;1042;-76
2021/12/20 02:00:08;;;;;;;;;;;;;;;22.16;22.64;96860.22;5015289;28;1066;-76
2021/12/20 02:02:34;;;;;;;;;;;;;;;21.93;22.90;96858.06;5014911;28;946;-76
2021/12/20 02:05:10;;;;;;;;;;;;;;;22.06;22.93;96859.41;5014857;28;1054;-75
2021/12/20 02:07:50;;;;;;;;;;;;;;;21.86;23.19;96853.47;4995087;28;1089;-76
2021/12/20 02:10:15;;;;;;;;;;;;;;;22.33;22.85;96847.28;4975811;28;1033;-75
2021/12/20 02:12:41;;;;;;;;;;;;;;;22.96;21.70;96841.00;4959506;28;1993;-76
2021/12/20 02:15:06;;;;;;;;;;;;;;;22.50;22.34;96836.34;4975548;28;1009;-76
2021/12/20 02:17:32;;;;;;;;;;;;;;;22.34;22.45;96837.50;4959590;28;1025;-76
2021/12/20 02:19:58;;;;;;;;;;;;;;;22.09;23.01;96827.31;4975324;28;1008;-76
2021/12/20 02:22:24;;;;;;;;;;;;;;;21.89;23.31;96829.09;4975488;28;1030;-76
2021/12/20 02:24:49;;;;;;;;;;;;;;;21.49;23.83;96836.53;4976098;28;958;-75
2021/12/20 02:27:16;;;;;;;;;;;;;;;21.99;22.89;96825.00;4975546;28;1032;-76
2021/12/20 02:29:59;;;;;;;;;;;;;;;21.87;23.21;96821.09;4983700;28;1314;-76
2021/12/20 02:37:53;;;;;;;;;;;;;;;21.43;24.14;96815.00;4986512;28;1001;-76
2021/12/20 02:40:21;;;;;;;;;;;;;;;21.68;23.83;96811.84;5018508;28;1008;-76
2021/12/20 02:42:48;;;;;;;;;;;;;;;21.72;23.57;96820.97;5017877;28;980;-76
2021/12/20 02:45:15;;;;;;;;;;;;;;;22.09;22.93;96809.53;5045559;28;990;-76
2021/12/20 02:47:44;;;;;;;;;;;;;;;22.73;22.23;96806.44;5054068;28;1007;-76
2021/12/20 02:50:10;;;;;;;;;;;;;;;22.35;22.65;96810.72;5053936;28;982;-76
2021/12/20 02:52:37;;;;;;;;;;;;;;;21.98;23.12;96812.09;5036677;28;1919;-76
2021/12/20 02:55:03;;;;;;;;;;;;;;;21.76;23.38;96815.94;5053540;28;978;-76
2021/12/20 02:57:29;;;;;;;;;;;;;;;22.00;23.13;96818.84;5053690;28;996;-76
2021/12/20 02:59:54;;;;;;;;;;;;;;;22.97;21.84;96815.00;5056835;28;984;-76
2021/12/20 03:02:21;;;;;;;;;;;;;;;22.79;22.07;96815.84;5073838;28;1020;-76
2021/12/20 03:04:47;;;;;;;;;;;;;;;22.33;22.48;96821.78;5073597;28;958;-76
2021/12/20 03:07:15;;;;;;;;;;;;;;;21.66;23.33;96817.19;5053612;28;971;-76
2021/12/20 03:09:42;;;;;;;;;;;;;;;21.87;23.07;96811.81;5053668;28;968;-76
2021/12/20 03:12:09;;;;;;;;;;;;;;;22.06;22.98;96807.66;5053154;28;1975;-76
2021/12/20 03:14:41;;;;;;;;;;;;;;;22.11;23.08;96809.88;5020596;28;979;-76
2021/12/20 03:17:06;;;;;;;;;;;;;;;22.24;22.64;96810.47;5053455;28;1032;-76
2021/12/20 03:19:32;;;;;;;;;;;;;;;21.84;23.26;96811.50;5036762;28;1164;-75
2021/12/20 03:21:57;;;;;;;;;;;;;;;21.95;23.35;96810.22;5053392;28;1023;-76
2021/12/20 03:24:23;;;;;;;;;;;;;;;21.99;23.34;96811.63;5053099;28;1047;-76
2021/12/20 03:26:52;;;;;;;;;;;;;;;22.01;23.07;96803.41;5053666;28;997;-76
2021/12/20 03:29:17;;;;;;;;;;;;;;;21.93;23.40;96798.56;5053464;28;958;-76
2021/12/20 03:31:43;;;;;;;;;;;;;;;22.14;23.00;96808.94;5053383;28;1894;-76
2021/12/20 03:34:08;;;;;;;;;;;;;;;21.97;23.08;96796.38;5013423;28;929;-76
2021/12/20 03:36:34;;;;;;;;;;;;;;;21.52;23.67;96806.53;4997322;28;937;-76
2021/12/20 03:38:59;;;;;;;;;;;;;;;22.49;22.89;96789.41;5046389;28;943;-76
2021/12/20 03:41:25;;;;;;;;;;;;;;;22.74;22.01;96796.69;5036758;28;1062;-76
2021/12/20 03:43:50;;;;;;;;;;;;;;;22.02;23.30;96787.19;5053247;28;1044;-76
2021/12/20 03:46:16;;;;;;;;;;;;;;;21.91;23.38;96789.75;5053490;28;997;-76
2021/12/20 03:48:41;;;;;;;;;;;;;;;21.97;23.36;96779.38;5053364;28;907;-76
2021/12/20 03:51:07;;;;;;;;;;;;;;;22.63;22.15;96779.41;5052990;28;965;-76
2021/12/20 03:53:33;;;;;;;;;;;;;;;22.61;22.32;96764.94;5052986;28;1922;-76
2021/12/20 03:55:58;;;;;;;;;;;;;;;21.81;23.48;96778.47;5052875;28;1166;-76
2021/12/20 03:58:26;;;;;;;;;;;;;;;21.93;23.44;96773.09;5053361;28;1137;-76
2021/12/20 04:00:52;;;;;;;;;;;;;;;22.23;22.84;96774.91;5053177;28;995;-76
2021/12/20 04:03:18;;;;;;;;;;;;;;;22.66;22.28;96761.44;5053138;28;980;-75
2021/12/20 04:05:43;;;;;;;;;;;;;;;22.82;21.95;96769.50;5069583;28;904;-75
2021/12/20 04:08:09;;;;;;;;;;;;;;;22.34;22.83;96769.50;5075125;28;945;-76
2021/12/20 04:10:34;;;;;;;;;;;;;;;22.01;23.08;96760.94;5056258;28;1017;-76
2021/12/20 04:13:00;;;;;;;;;;;;;;;21.95;23.43;96759.22;5075672;28;1909;-76
2021/12/20 04:15:25;;;;;;;;;;;;;;;22.09;23.22;96764.22;5057604;28;919;-76
2021/12/20 04:17:51;;;;;;;;;;;;;;;22.61;22.33;96764.94;5079484;28;975;-76
2021/12/20 04:20:16;;;;;;;;;;;;;;;22.43;22.61;96759.34;5079030;28;935;-76
2021/12/20 04:22:42;;;;;;;;;;;;;;;22.14;23.22;96763.59;5079001;28;928;-76
2021/12/20 04:25:07;;;;;;;;;;;;;;;22.01;23.02;96762.97;5060009;28;1060;-76
2021/12/20 04:27:33;;;;;;;;;;;;;;;22.22;22.95;96770.47;5078771;28;945;-76
2021/12/20 04:29:58;;;;;;;;;;;;;;;22.73;22.36;96754.59;5079035;28;941;-76
2021/12/20 04:32:24;;;;;;;;;;;;;;;22.51;22.42;96771.91;5078857;28;1897;-76
2021/12/20 04:34:49;;;;;;;;;;;;;;;21.93;23.32;96773.09;5060030;28;1036;-76
2021/12/20 04:37:14;;;;;;;;;;;;;;;21.87;23.54;96763.69;5078844;28;949;-76
2021/12/20 04:39:40;;;;;;;;;;;;;;;21.91;23.50;96769.94;5078736;28;993;-76
2021/12/20 04:42:06;;;;;;;;;;;;;;;22.50;22.72;96765.47;5077777;28;950;-77
2021/12/20 04:44:31;;;;;;;;;;;;;;;22.73;22.57;96761.06;5079066;28;1129;-76
2021/12/20 04:46:57;;;;;;;;;;;;;;;22.17;22.84;96773.94;5036297;28;1058;-76
2021/12/20 04:49:24;;;;;;;;;;;;;;;21.78;23.81;96768.09;5035935;28;974;-75
2021/12/20 04:51:53;;;;;;;;;;;;;;;21.46;23.73;96763.13;5035854;28;1985;-76
2021/12/20 04:54:18;;;;;;;;;;;;;;;22.35;22.76;96751.22;5046710;28;1237;-76
2021/12/20 04:56:44;;;;;;;;;;;;;;;22.67;22.32;96740.31;5044251;28;1323;-76
2021/12/20 04:59:09;;;;;;;;;;;;;;;22.50;22.52;96750.50;5036116;28;1014;-76
2021/12/20 05:01:35;;;;;;;;;;;;;;;21.74;23.76;96753.31;5036125;28;983;-76
2021/12/20 05:04:00;;;;;;;;;;;;;;;21.49;23.92;96773.50;5002976;28;977;-75
2021/12/20 05:06:25;;;;;;;;;;;;;;;22.16;23.15;96746.91;5035724;28;989;-76
2021/12/20 05:08:54;;;;;;;;;;;;;;;22.83;22.50;96754.06;5035759;28;1177;-76
2021/12/20 05:11:20;;;;;;;;;;;;;;;22.48;22.66;96755.84;5035817;28;925;-76
2021/12/20 05:13:46;;;;;;;;;;;;;;;21.87;23.62;96752.34;5036004;28;1977;-76
2021/12/20 05:16:11;;;;;;;;;;;;;;;21.90;23.42;96760.66;5036025;28;723;-76
2021/12/20 05:18:37;;;;;;;;;;;;;;;22.43;22.84;96759.34;5068960;28;949;-76
2021/12/20 05:21:02;;;;;;;;;;;;;;;23.10;21.72;96752.31;5077854;28;884;-77
2021/12/20 05:23:28;;;;;;;;;;;;;;;22.14;23.29;96762.81;5077667;28;1199;-76
2021/12/20 05:25:55;;;;;;;;;;;;;;;22.08;23.19;96768.31;5055359;28;912;-76
2021/12/20 05:28:21;;;;;;;;;;;;;;;20.94;25.07;96768.63;5055254;28;967;-76
2021/12/20 05:30:49;;;;;;;;;;;;;;;22.62;22.66;96766.50;5055194;28;839;-76
2021/12/20 05:33:15;;;;;;;;;;;;;;;23.10;21.77;96772.16;5055078;28;1985;-76
2021/12/20 05:35:40;;;;;;;;;;;;;;;22.57;22.60;96761.47;5055157;28;778;-76
2021/12/20 05:38:06;;;;;;;;;;;;;;;21.82;23.42;96777.22;5055067;28;782;-76
2021/12/20 05:40:31;;;;;;;;;;;;;;;21.62;23.96;96765.63;5022432;28;858;-76
2021/12/20 05:42:56;;;;;;;;;;;;;;;22.35;23.05;96776.72;5038501;28;751;-76
2021/12/20 05:45:23;;;;;;;;;;;;;;;23.08;22.13;96774.72;5054958;28;870;-76
2021/12/20 05:47:49;;;;;;;;;;;;;;;22.67;22.28;96785.69;5055087;28;754;-76
2021/12/20 05:50:15;;;;;;;;;;;;;;;22.20;22.62;96784.34;5054830;28;802;-76
2021/12/20 05:52:40;;;;;;;;;;;;;;;21.55;23.70;96780.06;5054732;28;1914;-76
2021/12/20 05:55:06;;;;;;;;;;;;;;;22.05;23.10;96777.75;5054885;28;822;-76
2021/12/20 05:57:32;;;;;;;;;;;;;;;22.58;22.24;96778.00;5072165;28;765;-76
2021/12/20 05:59:58;;;;;;;;;;;;;;;22.97;21.70;96786.63;5076957;28;770;-76
2021/12/20 06:02:23;;;;;;;;;;;;;;;22.18;22.61;96789.72;5077606;28;802;-76
2021/12/20 06:04:50;;;;;;;;;;;;;;;21.93;23.30;96792.91;5058206;28;1066;-76
2021/12/20 06:07:19;;;;;;;;;;;;;;;22.30;22.61;96802.09;5058247;28;922;-76
2021/12/20 06:09:45;;;;;;;;;;;;;;;22.66;22.10;96798.28;5077067;28;825;-75
2021/12/20 06:12:11;;;;;;;;;;;;;;;22.71;22.36;96797.63;5076578;28;1910;-77
2021/12/20 06:14:36;;;;;;;;;;;;;;;22.13;22.79;96807.34;5057935;28;1131;-76
2021/12/20 06:17:01;;;;;;;;;;;;;;;22.36;22.86;96794.50;5076463;28;857;-76
2021/12/20 06:19:27;;;;;;;;;;;;;;;21.61;23.45;96806.50;5076591;28;790;-76
2021/12/20 06:21:53;;;;;;;;;;;;;;;21.69;23.56;96813.41;5076839;28;1015;-75
2021/12/20 06:24:18;;;;;;;;;;;;;;;22.11;23.05;96818.38;5054215;28;1103;-76
2021/12/20 06:26:44;;;;;;;;;;;;;;;22.22;22.65;96818.63;5054513;28;916;-76
2021/12/20 06:29:09;;;;;;;;;;;;;;;22.10;22.81;96822.44;5054059;28;939;-76
2021/12/20 06:31:34;;;;;;;;;;;;;;;21.80;23.17;96833.50;5054003;28;1902;-76
2021/12/20 06:34:00;;;;;;;;;;;;;;;22.12;22.91;96819.94;5053948;28;946;-76
2021/12/20 06:36:28;;;;;;;;;;;;;;;22.25;22.89;96834.69;5054522;28;970;-76
2021/12/20 06:38:56;;;;;;;;;;;;;;;22.33;22.27;96841.59;5033276;28;978;-75
2021/12/20 06:41:24;;;;;;;;;;;;;;;22.30;22.69;96839.72;5034142;28;969;-74
2021/12/20 06:43:49;;;;;;;;;;;;;;;22.35;22.31;96833.41;5034088;28;976;-75
2021/12/20 06:46:17;;;;;;;;;;;;;;;22.08;23.02;96830.63;5033978;28;957;-75
2021/12/20 06:48:42;;;;;;;;;;;;;;;22.35;22.51;96833.41;5034149;28;947;-74
2021/12/20 06:51:07;;;;;;;;;;;;;;;22.49;22.31;96831.94;5034080;28;952;-74
2021/12/20 06:53:33;;;;;;;;;;;;;;;21.74;23.31;96835.41;5033328;28;1986;-74
2021/12/20 06:55:58;;;;;;;;;;;;;;;22.58;22.14;96833.91;5064280;28;1053;-74
2021/12/20 06:58:24;;;;;;;;;;;;;;;22.52;22.26;96847.19;5022643;28;1008;-74
2021/12/20 07:00:51;;;;;;;;;;;;;;;22.16;22.53;96848.09;5052738;28;1813;-75
2021/12/20 07:03:16;;;;;;;;;;;;;;;22.36;22.44;96857.63;5052679;28;1106;-75
2021/12/20 07:05:41;;;;;;;;;;;;;;;21.96;22.62;96862.75;5052666;28;1007;-75
2021/12/20 07:08:07;;;;;;;;;;;;;;;22.43;22.12;96867.06;5052838;28;980;-74
2021/12/20 07:10:32;;;;;;;;;;;;;;;21.93;23.03;96869.38;5052924;28;977;-75
2021/12/20 07:13:00;;;;;;;;;;;;;;;22.20;22.55;96877.84;5052501;28;1898;-74
2021/12/20 07:15:27;;;;;;;;;;;;;;;22.15;22.87;96886.19;5052608;28;1039;-75
2021/12/20 07:17:52;;;;;;;;;;;;;;;22.38;22.33;96893.22;5052444;28;859;-74
2021/12/20 07:20:17;;;;;;;;;;;;;;;22.14;22.53;96902.41;5052776;28;1091;-75
2021/12/20 07:22:43;;;;;;;;;;;;;;;22.38;22.33;96894.00;5019076;28;1123;-75
2021/12/20 07:25:08;;;;;;;;;;;;;;;22.19;22.59;96892.50;5052392;28;1214;-74
2021/12/20 07:27:34;;;;;;;;;;;;;;;22.38;22.64;96904.53;5052701;28;907;-74
2021/12/20 07:29:59;;;;;;;;;;;;;;;22.18;22.72;96905.88;5036116;28;1052;-75
2021/12/20 07:32:27;;;;;;;;;;;;;;;22.22;22.77;96903.63;5068929;28;1897;-74
2021/12/20 07:34:53;;;;;;;;;;;;;;;22.28;22.52;96907.44;5075048;28;918;-76
2021/12/20 07:37:18;;;;;;;;;;;;;;;22.16;22.76;96904.75;5075164;28;846;-77
2021/12/20 07:39:44;;;;;;;;;;;;;;;22.16;22.95;96899.88;5074827;28;841;-76
2021/12/20 07:42:09;;;;;;;;;;;;;;;22.14;22.69;96908.09;5074570;28;1021;-77
2021/12/20 07:44:35;;;;;;;;;;;;;;;22.32;22.50;96908.03;5089340;28;1101;-76
2021/12/20 07:47:03;;;;;;;;;;;;;;;22.20;22.70;96911.84;5074736;28;994;-76
2021/12/20 07:49:34;;;;;;;;;;;;;;;22.34;22.59;96916.84;5074529;28;926;-76
2021/12/20 07:52:00;;;;;;;;;;;;;;;22.39;22.33;96923.16;5035809;28;1210969;-76
2021/12/20 07:54:26;;;;;;;;;;;;;;;22.34;22.48;96925.34;5080011;28;978;-77
2021/12/20 07:56:51;;;;;;;;;;;;;;;22.28;22.38;96930.09;5060820;28;981;-74
2021/12/20 07:59:16;;;;;;;;;;;;;;;22.28;22.41;96929.31;5079838;28;963;-73
2021/12/20 08:01:42;;;;;;;;;;;;;;;22.25;22.69;96930.25;5077716;28;913;-73
2021/12/20 08:04:10;;;;;;;;;;;;;;;21.76;23.31;96936.84;5079522;28;900;-76
2021/12/20 08:06:38;;;;;;;;;;;;;;;21.56;23.41;96937.34;5079816;28;891;-75
2021/12/20 08:09:03;;;;;;;;;;;;;;;21.61;23.54;96948.03;5060902;28;1263;-75
2021/12/20 08:11:31;;;;;;;;;;;;;;;22.23;22.68;96952.63;5079286;28;896;-75
2021/12/20 08:13:56;;;;;;;;;;;;;;;22.25;22.56;96953.72;5078183;28;2021;-76
2021/12/20 08:16:22;;;;;;;;;;;;;;;22.18;22.89;96950.44;5079641;28;923;-76
2021/12/20 08:18:47;;;;;;;;;;;;;;;22.25;22.79;96953.72;5079433;28;946;-76
2021/12/20 08:21:14;;;;;;;;;;;;;;;22.34;22.55;96950.88;5079631;28;996;-76
2021/12/20 08:23:40;;;;;;;;;;;;;;;22.19;22.85;96944.28;5076518;28;1033;-75
2021/12/20 08:26:06;;;;;;;;;;;;;;;22.00;22.88;96957.63;5076827;28;1047;-75
2021/12/20 08:28:32;;;;;;;;;;;;;;;22.19;22.74;96955.59;5076825;28;980;-75
2021/12/20 08:30:57;;;;;;;;;;;;;;;22.11;22.65;96962.84;5027124;28;1021;-75
2021/12/20 08:33:23;;;;;;;;;;;;;;;22.15;22.77;96966.31;5076571;28;1941;-75
2021/12/20 08:35:49;;;;;;;;;;;;;;;22.25;22.58;96970.72;5060233;28;1006;-75
2021/12/20 08:38:18;;;;;;;;;;;;;;;21.62;23.56;96968.66;5076639;28;957;-74
2021/12/20 08:40:44;;;;;;;;;;;;;;;22.29;22.75;96977.00;5076791;28;950;-75
2021/12/20 08:43:09;;;;;;;;;;;;;;;22.10;22.98;96969.75;5076810;28;966;-75
2021/12/20 08:45:35;;;;;;;;;;;;;;;22.40;22.30;96978.56;5076632;28;1133;-75
2021/12/20 08:48:00;;;;;;;;;;;;;;;22.28;22.69;96975.44;5026454;28;1101;-75
2021/12/20 08:50:26;;;;;;;;;;;;;;;22.08;22.72;96973.06;5076281;28;968;-76
2021/12/20 08:52:51;;;;;;;;;;;;;;;22.21;22.62;96984.25;5076358;28;1906;-75
2021/12/20 08:55:16;;;;;;;;;;;;;;;22.25;22.68;96970.72;5078042;28;1059;-75
2021/12/20 08:57:42;;;;;;;;;;;;;;;22.10;22.99;96983.91;5078738;28;916;-75
2021/12/20 09:00:09;;;;;;;;;;;;;;;22.10;22.90;96975.41;5039353;28;961;-75
2021/12/20 09:02:38;;;;;;;;;;;;;;;22.23;22.57;96983.78;5056098;28;940;-76
2021/12/20 09:05:03;;;;;;;;;;;;;;;22.15;22.72;96994.63;5056495;28;968;-76
2021/12/20 09:07:29;;;;;;;;;;;;;;;22.12;22.87;96984.25;5022814;28;1000;-76
2021/12/20 09:09:54;;;;;;;;;;;;;;;22.47;22.44;96986.72;5035804;28;1024;-76
2021/12/20 09:12:20;;;;;;;;;;;;;;;22.09;23.00;96988.78;5036389;28;1985;-76
2021/12/20 09:14:46;;;;;;;;;;;;;;;22.49;22.60;96978.56;5016002;28;986;-75
2021/12/20 09:17:11;;;;;;;;;;;;;;;22.41;22.63;96983.75;4996426;28;1562;-75
2021/12/20 09:19:37;;;;;;;;;;;;;;;22.21;22.69;96986.28;4996670;28;1020;-75
2021/12/20 09:22:05;;;;;;;;;;;;;;;22.25;22.74;96982.03;4996523;28;1028;-75
2021/12/20 09:24:31;;;;;;;;;;;;;;;22.42;22.69;96984.53;4996571;28;969;-75
2021/12/20 09:26:59;;;;;;;;;;;;;;;22.47;22.38;96992.41;4977101;28;971;-76
2021/12/20 09:29:24;;;;;;;;;;;;;;;21.75;23.63;96992.72;4977000;28;981;-75
2021/12/20 09:31:50;;;;;;;;;;;;;;;22.12;22.88;97000.47;4976724;28;1906;-75
2021/12/20 09:34:15;;;;;;;;;;;;;;;22.45;22.77;96983.59;4976766;28;1039;-75
2021/12/20 09:36:43;;;;;;;;;;;;;;;22.87;22.04;97001.44;4976946;28;1048;-76
2021/12/20 09:39:11;;;;;;;;;;;;;;;22.06;23.02;97008.78;4976466;28;1534;-75
2021/12/20 09:44:06;;;;;;;;;;;;;;;21.77;23.37;96998.69;4995941;28;1041;-75
2021/12/20 09:46:31;;;;;;;;;;;;;;;22.28;22.76;97000.94;4979269;28;990;-75
2021/12/20 09:48:57;;;;;;;;;;;;;;;21.86;23.67;97000.72;5031524;28;1064;-75
2021/12/20 09:51:23;;;;;;;;;;;;;;;21.49;24.12;97000.69;5055793;28;1054;-75
2021/12/20 09:53:48;;;;;;;;;;;;;;;21.80;23.47;96992.09;5034905;28;1906;-75
2021/12/20 09:56:14;;;;;;;;;;;;;;;21.94;23.42;96993.50;4986096;28;995;-76
2021/12/20 09:58:40;;;;;;;;;;;;;;;21.98;23.42;96993.38;5019039;28;948;-75
2021/12/20 10:01:07;;;;;;;;;;;;;;;22.38;22.82;96995.25;5035017;28;942;-75
2021/12/20 10:03:32;;;;;;;;;;;;;;;22.15;23.05;96993.84;4978947;28;1061;-75
2021/12/20 10:05:58;;;;;;;;;;;;;;;22.44;22.67;96987.69;4995594;28;1006;-75
2021/12/20 10:08:33;;;;;;;;;;;;;;;22.71;22.40;96989.69;4979342;28;1172;-76
2021/12/20 10:11:05;;;;;;;;;;;;;;;22.28;22.75;96989.59;4995620;28;887;-75
2021/12/20 10:13:32;;;;;;;;;;;;;;;21.59;23.72;96998.66;4994518;28;2001;-76
2021/12/20 10:15:57;;;;;;;;;;;;;;;21.81;23.69;96981.53;4995921;28;1067;-75
2021/12/20 10:18:24;;;;;;;;;;;;;;;22.09;23.20;96982.34;4995568;28;1013;-75
2021/12/20 10:20:53;;;;;;;;;;;;;;;22.27;23.00;96985.19;4995601;28;982;-75
2021/12/20 10:23:25;;;;;;;;;;;;;;;22.46;22.78;96990.81;4995311;28;961;-75
2021/12/20 10:25:52;;;;;;;;;;;;;;;22.61;22.52;96986.06;5032055;28;1005;-75
2021/12/20 10:28:21;;;;;;;;;;;;;;;22.40;22.65;96987.06;5034696;28;924;-75
2021/12/20 10:30:50;;;;;;;;;;;;;;;21.79;23.57;96990.50;5034804;28;1034;-75
2021/12/20 10:33:17;;;;;;;;;;;;;;;22.21;23.02;96989.91;5034602;28;1906;-75
2021/12/20 10:35:49;;;;;;;;;;;;;;;21.71;23.63;96992.09;5076503;28;989;-75
2021/12/20 10:38:22;;;;;;;;;;;;;;;21.99;23.35;96992.09;5076600;28;953;-75
2021/12/20 10:40:55;;;;;;;;;;;;;;;22.45;22.82;96989.25;5074446;28;997;-76
2021/12/20 10:43:22;;;;;;;;;;;;;;;22.35;22.90;96997.78;5057355;28;973;-75
2021/12/20 10:45:48;;;;;;;;;;;;;;;22.21;22.96;96989.91;5074379;28;959;-75
2021/12/20 10:48:13;;;;;;;;;;;;;;;22.36;22.99;96999.34;5057544;28;1010;-75
2021/12/20 10:50:42;;;;;;;;;;;;;;;22.45;22.44;96994.94;5074112;28;1032;-75
2021/12/20 10:53:15;;;;;;;;;;;;;;;22.84;22.04;96993.88;5058055;28;1980;-75
2021/12/20 10:55:44;;;;;;;;;;;;;;;22.27;22.59;96996.50;5057467;28;1040;-75
2021/12/20 10:58:16;;;;;;;;;;;;;;;22.28;22.92;97005.81;5074244;28;1001;-76
2021/12/20 11:00:42;;;;;;;;;;;;;;;21.84;23.20;97001.22;5073763;28;1714;-75
2021/12/20 11:05:45;;;;;;;;;;;;;;;22.32;22.77;97001.53;5074126;28;1015;-75
2021/12/20 11:11:08;;;;;;;;;;;;;;;21.83;23.60;96996.03;5074372;28;956;-75
2021/12/20 11:13:37;;;;;;;;;;;;;;;21.63;23.79;97007.81;5076042;28;1922;-75
2021/12/20 11:16:27;;;;;;;;;;;;;;;21.85;23.39;97005.63;5076072;28;903;-75
2021/12/20 11:19:11;;;;;;;;;;;;;;;21.92;23.56;97012.25;5076364;28;913;-75
2021/12/20 11:21:46;;;;;;;;;;;;;;;22.26;22.95;97017.63;5075948;28;982;-75
2021/12/20 11:24:20;;;;;;;;;;;;;;;22.21;23.10;97023.91;5076293;28;885;-75
2021/12/20 11:26:46;;;;;;;;;;;;;;;22.07;23.35;97021.66;5076421;28;883;-75
2021/12/20 11:29:11;;;;;;;;;;;;;;;22.01;23.24;97023.56;5076164;28;883;-75
2021/12/20 11:31:37;;;;;;;;;;;;;;;22.26;22.95;97028.16;5073652;28;958;-75
2021/12/20 11:34:03;;;;;;;;;;;;;;;22.39;22.65;97025.19;5073410;28;1946;-75
2021/12/20 11:36:28;;;;;;;;;;;;;;;21.75;23.64;97040.06;5073615;28;1028;-75
2021/12/20 11:38:53;;;;;;;;;;;;;;;22.05;23.46;97021.38;5073370;28;1001;-75
2021/12/20 11:41:19;;;;;;;;;;;;;;;22.55;22.53;97039.00;5033369;28;1022;-75
2021/12/20 11:43:47;;;;;;;;;;;;;;;22.54;22.43;97034.63;5033991;28;1020;-75
2021/12/20 11:46:13;;;;;;;;;;;;;;;22.27;23.09;97036.19;4993832;28;980;-75
2021/12/20 11:48:39;;;;;;;;;;;;;;;21.65;23.62;97044.13;4993834;28;1008;-75
2021/12/20 11:51:04;;;;;;;;;;;;;;;22.09;23.34;97041.84;4994101;28;1045;-76
2021/12/20 11:53:36;;;;;;;;;;;;;;;22.04;23.48;97039.63;4993846;28;1914;-75
2021/12/20 11:56:02;;;;;;;;;;;;;;;22.22;23.01;97039.66;4994125;28;1015;-75
2021/12/20 11:58:31;;;;;;;;;;;;;;;22.57;22.88;97042.16;4993985;28;982;-75
2021/12/20 12:00:58;;;;;;;;;;;;;;;22.63;22.66;97043.06;4994077;28;1096;-75
2021/12/20 12:03:24;;;;;;;;;;;;;;;22.23;23.15;97041.25;4994234;28;1042;-75
2021/12/20 12:05:53;;;;;;;;;;;;;;;22.37;23.05;97034.13;4993755;28;1059;-75
2021/12/20 12:08:23;;;;;;;;;;;;;;;21.90;23.71;97034.56;4993873;28;1011;-75
2021/12/20 12:10:48;;;;;;;;;;;;;;;21.39;23.96;97035.88;4994160;28;1005;-75
2021/12/20 12:13:18;;;;;;;;;;;;;;;22.28;22.81;97032.13;5028475;28;2040;-76
2021/12/20 12:16:03;;;;;;;;;;;;;;;21.88;23.57;97037.88;5001640;28;1023;-75
2021/12/20 12:18:42;;;;;;;;;;;;;;;21.84;23.80;97048.56;5075519;28;927;-75
2021/12/20 12:21:08;;;;;;;;;;;;;;;22.26;23.26;97045.94;5075432;28;935;-75
2021/12/20 12:23:42;;;;;;;;;;;;;;;21.77;23.89;97058.16;5075339;28;1042;-75
2021/12/20 12:26:09;;;;;;;;;;;;;;;21.86;23.47;97057.38;5074326;28;1044;-75
2021/12/20 12:28:55;;;;;;;;;;;;;;;21.89;23.66;97062.13;5075304;28;886;-75
2021/12/20 12:31:20;;;;;;;;;;;;;;;21.18;24.65;97065.78;5075788;28;923;-75
2021/12/20 12:33:46;;;;;;;;;;;;;;;22.02;23.48;97059.13;5075331;28;1977;-75
2021/12/20 12:36:30;;;;;;;;;;;;;;;22.08;23.37;97069.38;5076302;28;923;-75
2021/12/20 12:38:59;;;;;;;;;;;;;;;21.56;23.97;97078.88;5079465;28;906;-75
2021/12/20 12:41:26;;;;;;;;;;;;;;;22.08;23.25;97079.94;5079530;28;925;-75
2021/12/20 12:44:24;;;;;;;;;;;;;;;21.94;23.30;97080.53;5079168;28;902;-76
2021/12/20 12:47:22;;;;;;;;;;;;;;;22.13;23.49;97082.16;5017040;28;961;-76
2021/12/20 12:49:50;;;;;;;;;;;;;;;21.39;24.47;97083.19;4958524;29;1003;-75
2021/12/20 12:52:16;;;;;;;;;;;;;;;21.95;23.63;97084.94;4942152;29;1948;-75
2021/12/20 12:54:41;;;;;;;;;;;;;;;21.76;23.88;97087.75;4958125;29;1167;-75
2021/12/20 12:57:09;;;;;;;;;;;;;;;21.45;24.29;97084.97;4958576;29;980;-75
2021/12/20 12:59:47;;;;;;;;;;;;;;;22.09;23.21;97093.63;4958025;29;950;-75
2021/12/20 13:02:15;;;;;;;;;;;;;;;22.14;23.40;97100.72;4958271;28;1046;-76
2021/12/20 13:04:44;;;;;;;;;;;;;;;21.98;23.38;97089.66;4958267;29;1098;-75
2021/12/20 13:07:09;;;;;;;;;;;;;;;21.35;24.24;97085.38;4958023;29;1196;-75
2021/12/20 13:09:42;;;;;;;;;;;;;;;21.85;23.69;97087.75;4957807;29;1044;-76
2021/12/20 13:12:08;;;;;;;;;;;;;;;21.79;23.83;97092.44;4957809;28;1977;-76
2021/12/20 13:14:34;;;;;;;;;;;;;;;21.82;23.96;97085.88;4957725;29;949;-75
2021/12/20 13:17:02;;;;;;;;;;;;;;;22.15;23.29;97093.81;4958463;29;1091;-75
2021/12/20 13:19:28;;;;;;;;;;;;;;;22.12;23.39;97097.56;4957873;29;1047;-75
2021/12/20 13:22:00;;;;;;;;;;;;;;;21.98;23.58;97098.16;4975068;28;927;-75